createdAt,value
2023-04-16T00:00:47.238Z,8.30
2023-04-16T00:01:47.070Z,8.30
2023-04-16T00:02:47.110Z,8.33
2023-04-16T00:03:47.509Z,8.32
2023-04-16T00:04:47.026Z,8.32
2023-04-16T00:05:47.208Z,8.33
2023-04-16T00:06:47.051Z,8.33
2023-04-16T00:07:47.108Z,8.33
2023-04-16T00:08:47.229Z,8.35
2023-04-16T00:09:47.072Z,8.35
2023-04-16T00:10:46.922Z,8.33
2023-04-16T00:11:47.482Z,8.30
2023-04-16T00:12:47.195Z,8.32
2023-04-16T00:13:47.087Z,8.33
2023-04-16T00:14:47.105Z,8.33
2023-04-16T00:15:47.007Z,8.36
2023-04-16T00:16:46.914Z,8.35
2023-04-16T00:17:46.950Z,8.36
2023-04-16T00:18:47.003Z,8.36
2023-04-16T00:19:47.048Z,8.35
2023-04-16T00:20:46.845Z,8.37
2023-04-16T00:21:47.044Z,8.36
2023-04-16T00:22:46.826Z,8.36
2023-04-16T00:23:46.784Z,8.36
2023-04-16T00:24:46.787Z,8.33
2023-04-16T00:25:46.772Z,8.35
2023-04-16T00:26:46.744Z,8.35
2023-04-16T00:27:46.760Z,8.36
2023-04-16T00:28:46.710Z,8.36
2023-04-16T00:29:46.744Z,8.35
2023-04-16T00:30:47.160Z,8.36
2023-04-16T00:31:46.692Z,8.37
2023-04-16T00:32:46.754Z,8.39
2023-04-16T00:33:46.683Z,8.39
2023-04-16T00:34:46.650Z,8.39
2023-04-16T00:35:46.644Z,8.37
2023-04-16T00:36:46.679Z,8.37
2023-04-16T00:37:46.635Z,8.39
2023-04-16T00:38:46.618Z,8.37
2023-04-16T00:39:46.631Z,8.39
2023-04-16T00:40:46.593Z,8.37
2023-04-16T00:41:46.603Z,8.40
2023-04-16T00:42:46.632Z,8.37
2023-04-16T00:43:46.605Z,8.37
2023-04-16T00:44:46.580Z,8.39
2023-04-16T00:45:46.573Z,8.40
2023-04-16T00:46:46.596Z,8.39
2023-04-16T00:47:46.529Z,8.39
2023-04-16T00:48:46.549Z,8.40
2023-04-16T00:49:46.601Z,8.40
2023-04-16T00:50:46.497Z,8.39
2023-04-16T00:51:46.536Z,8.39
2023-04-16T00:52:46.516Z,8.40
2023-04-16T00:53:46.483Z,8.40
2023-04-16T00:54:46.509Z,8.39
2023-04-16T00:55:46.529Z,8.40
2023-04-16T00:56:46.452Z,8.42
2023-04-16T00:57:46.439Z,8.40
2023-04-16T00:58:46.451Z,8.42
2023-04-16T00:59:46.454Z,8.44
2023-04-16T01:00:46.422Z,8.42
2023-04-16T01:01:46.420Z,8.40
2023-04-16T01:02:46.670Z,8.39
2023-04-16T01:03:46.404Z,8.40
2023-04-16T01:04:46.378Z,8.42
2023-04-16T01:05:46.339Z,8.44
2023-04-16T01:06:46.352Z,8.44
2023-04-16T01:07:46.341Z,8.44
2023-04-16T01:08:46.339Z,8.44
2023-04-16T01:09:46.295Z,8.44
2023-04-16T01:10:46.313Z,8.44
2023-04-16T01:11:46.306Z,8.45
2023-04-16T01:12:46.308Z,8.47
2023-04-16T01:13:46.283Z,8.45
2023-04-16T01:14:46.285Z,8.45
2023-04-16T01:15:46.296Z,8.48
2023-04-16T01:16:46.256Z,8.47
2023-04-16T01:17:46.270Z,8.47
2023-04-16T01:18:46.325Z,8.48
2023-04-16T01:19:46.204Z,8.47
2023-04-16T01:20:46.200Z,8.48
2023-04-16T01:21:46.201Z,8.48
2023-04-16T01:22:46.257Z,8.48
2023-04-16T01:23:46.175Z,8.47
2023-04-16T01:24:46.563Z,8.48
2023-04-16T01:25:46.169Z,8.47
2023-04-16T01:26:46.199Z,8.48
2023-04-16T01:27:46.134Z,8.50
2023-04-16T01:28:46.164Z,8.50
2023-04-16T01:29:46.135Z,8.50
2023-04-16T01:30:46.173Z,8.51
2023-04-16T01:31:46.228Z,8.48
2023-04-16T01:32:46.133Z,8.50
2023-04-16T01:33:46.063Z,8.51
2023-04-16T01:34:46.080Z,8.48
2023-04-16T01:35:46.120Z,8.50
2023-04-16T01:36:46.086Z,8.47
2023-04-16T01:37:46.050Z,8.47
2023-04-16T01:38:46.024Z,8.48
2023-04-16T01:39:46.017Z,8.48
2023-04-16T01:40:45.985Z,8.50
2023-04-16T01:41:46.013Z,8.48
2023-04-16T01:42:46.013Z,8.50
2023-04-16T01:43:45.983Z,8.51
2023-04-16T01:44:45.955Z,8.50
2023-04-16T01:45:46.001Z,8.51
2023-04-16T01:46:46.007Z,8.51
2023-04-16T01:47:45.986Z,8.51
2023-04-16T01:48:45.925Z,8.51
2023-04-16T01:49:45.926Z,8.50
2023-04-16T01:50:45.882Z,8.50
2023-04-16T01:51:45.967Z,8.51
2023-04-16T01:52:45.902Z,8.50
2023-04-16T01:53:45.864Z,8.50
2023-04-16T01:54:45.909Z,8.50
2023-04-16T01:55:45.846Z,8.51
2023-04-16T01:56:45.840Z,8.50
2023-04-16T01:57:45.866Z,8.50
2023-04-16T01:58:45.870Z,8.51
2023-04-16T01:59:45.855Z,8.50
2023-04-16T02:00:45.848Z,8.51
2023-04-16T02:01:45.850Z,8.51
2023-04-16T02:02:45.880Z,8.53
2023-04-16T02:03:45.999Z,8.53
2023-04-16T02:04:45.744Z,8.53
2023-04-16T02:05:45.794Z,8.53
2023-04-16T02:06:45.791Z,8.54
2023-04-16T02:07:45.743Z,8.53
2023-04-16T02:08:45.711Z,8.51
2023-04-16T02:09:45.710Z,8.53
2023-04-16T02:10:45.699Z,8.53
2023-04-16T02:11:45.694Z,8.54
2023-04-16T02:12:45.727Z,8.54
2023-04-16T02:13:45.668Z,8.54
2023-04-16T02:14:45.692Z,8.54
2023-04-16T02:15:45.641Z,8.51
2023-04-16T02:16:46.441Z,8.53
2023-04-16T02:17:45.651Z,8.54
2023-04-16T02:18:45.664Z,8.53
2023-04-16T02:19:45.614Z,8.54
2023-04-16T02:20:45.632Z,8.54
2023-04-16T02:21:45.586Z,8.54
2023-04-16T02:22:45.577Z,8.53
2023-04-16T02:23:45.571Z,8.54
2023-04-16T02:24:45.678Z,8.55
2023-04-16T02:25:45.572Z,8.54
2023-04-16T02:26:45.547Z,8.55
2023-04-16T02:27:45.527Z,8.55
2023-04-16T02:28:45.520Z,8.54
2023-04-16T02:29:45.536Z,8.55
2023-04-16T02:30:45.604Z,8.57
2023-04-16T02:31:45.571Z,8.55
2023-04-16T02:32:45.519Z,8.57
2023-04-16T02:33:45.478Z,8.57
2023-04-16T02:34:45.492Z,8.55
2023-04-16T02:35:45.468Z,8.55
2023-04-16T02:36:45.492Z,8.54
2023-04-16T02:37:45.441Z,8.55
2023-04-16T02:38:45.461Z,8.54
2023-04-16T02:39:45.404Z,8.55
2023-04-16T02:40:45.375Z,8.57
2023-04-16T02:41:45.355Z,8.55
2023-04-16T02:42:45.404Z,8.57
2023-04-16T02:43:45.356Z,8.57
2023-04-16T02:44:45.351Z,8.57
2023-04-16T02:45:45.426Z,8.58
2023-04-16T02:46:45.312Z,8.55
2023-04-16T02:47:45.346Z,8.55
2023-04-16T02:48:45.315Z,8.57
2023-04-16T02:49:45.344Z,8.55
2023-04-16T02:50:45.305Z,8.57
2023-04-16T02:51:45.277Z,8.57
2023-04-16T02:52:45.295Z,8.57
2023-04-16T02:53:45.280Z,8.57
2023-04-16T02:54:45.306Z,8.57
2023-04-16T02:55:45.262Z,8.58
2023-04-16T02:56:45.243Z,8.57
2023-04-16T02:57:45.232Z,8.57
2023-04-16T02:58:45.192Z,8.57
2023-04-16T02:59:45.207Z,8.58
2023-04-16T03:00:45.215Z,8.62
2023-04-16T03:01:45.245Z,8.62
2023-04-16T03:02:45.266Z,8.60
2023-04-16T03:03:45.261Z,8.60
2023-04-16T03:04:45.160Z,8.60
2023-04-16T03:05:45.153Z,8.58
2023-04-16T03:06:45.165Z,8.58
2023-04-16T03:07:45.142Z,8.62
2023-04-16T03:08:45.099Z,8.58
2023-04-16T03:09:45.139Z,8.60
2023-04-16T03:10:45.151Z,8.62
2023-04-16T03:11:45.101Z,8.60
2023-04-16T03:12:45.096Z,8.60
2023-04-16T03:13:45.071Z,8.60
2023-04-16T03:14:45.068Z,8.58
2023-04-16T03:15:45.063Z,8.57
2023-04-16T03:16:45.060Z,8.60
2023-04-16T03:17:45.039Z,8.58
2023-04-16T03:18:45.025Z,8.60
2023-04-16T03:19:44.973Z,8.60
2023-04-16T03:20:45.004Z,8.60
2023-04-16T03:21:44.979Z,8.60
2023-04-16T03:22:44.968Z,8.60
2023-04-16T03:23:44.978Z,8.60
2023-04-16T03:24:45.059Z,8.58
2023-04-16T03:25:44.964Z,8.58
2023-04-16T03:26:44.952Z,8.58
2023-04-16T03:27:44.941Z,8.58
2023-04-16T03:28:44.908Z,8.58
2023-04-16T03:29:44.949Z,8.60
2023-04-16T03:30:44.933Z,8.58
2023-04-16T03:31:44.914Z,8.58
2023-04-16T03:32:44.915Z,8.57
2023-04-16T03:33:44.845Z,8.57
2023-04-16T03:34:44.887Z,8.57
2023-04-16T03:35:44.836Z,8.58
2023-04-16T03:36:45.278Z,8.58
2023-04-16T03:37:44.836Z,8.60
2023-04-16T03:38:44.839Z,8.60
2023-04-16T03:39:44.848Z,8.60
2023-04-16T03:40:44.826Z,8.62
2023-04-16T03:41:44.832Z,8.62
2023-04-16T03:42:44.824Z,8.62
2023-04-16T03:43:44.805Z,8.62
2023-04-16T03:44:44.772Z,8.62
2023-04-16T03:45:44.775Z,8.62
2023-04-16T03:46:44.794Z,8.62
2023-04-16T03:47:44.793Z,8.62
2023-04-16T03:48:44.761Z,8.63
2023-04-16T03:49:44.711Z,8.63
2023-04-16T03:50:44.708Z,8.63
2023-04-16T03:51:44.719Z,8.65
2023-04-16T03:52:44.696Z,8.65
2023-04-16T03:53:44.690Z,8.63
2023-04-16T03:54:44.725Z,8.65
2023-04-16T03:55:44.679Z,8.65
2023-04-16T03:56:44.671Z,8.63
2023-04-16T03:57:44.617Z,8.63
2023-04-16T03:58:44.617Z,8.63
2023-04-16T03:59:44.610Z,8.63
2023-04-16T04:00:44.636Z,8.62
2023-04-16T04:01:44.604Z,8.63
2023-04-16T04:02:44.816Z,8.65
2023-04-16T04:03:44.787Z,8.66
2023-04-16T04:04:44.683Z,8.66
2023-04-16T04:05:44.576Z,8.65
2023-04-16T04:06:44.567Z,8.65
2023-04-16T04:07:44.560Z,8.66
2023-04-16T04:08:44.514Z,8.65
2023-04-16T04:09:44.525Z,8.63
2023-04-16T04:10:44.524Z,8.66
2023-04-16T04:11:44.522Z,8.66
2023-04-16T04:12:44.546Z,8.66
2023-04-16T04:13:44.501Z,8.68
2023-04-16T04:14:44.474Z,8.66
2023-04-16T04:15:44.480Z,8.66
2023-04-16T04:16:44.535Z,8.66
2023-04-16T04:17:44.450Z,8.68
2023-04-16T04:18:44.611Z,8.69
2023-04-16T04:19:54.316Z,8.68
2023-04-16T04:20:44.442Z,8.68
2023-04-16T04:21:44.444Z,8.68
2023-04-16T04:22:44.408Z,8.68
2023-04-16T04:23:44.402Z,8.68
2023-04-16T04:24:44.417Z,8.71
2023-04-16T04:25:44.400Z,8.68
2023-04-16T04:26:44.357Z,8.69
2023-04-16T04:27:44.338Z,8.68
2023-04-16T04:28:44.341Z,8.68
2023-04-16T04:29:44.306Z,8.68
2023-04-16T04:30:44.332Z,8.72
2023-04-16T04:31:44.356Z,8.69
2023-04-16T04:32:44.324Z,8.69
2023-04-16T04:33:44.271Z,8.71
2023-04-16T04:34:44.274Z,8.71
2023-04-16T04:35:44.279Z,8.69
2023-04-16T04:36:44.254Z,8.71
2023-04-16T04:37:44.232Z,8.71
2023-04-16T04:38:44.242Z,8.71
2023-04-16T04:39:44.212Z,8.72
2023-04-16T04:40:44.175Z,8.71
2023-04-16T04:41:44.201Z,8.72
2023-04-16T04:42:44.229Z,8.72
2023-04-16T04:43:44.192Z,8.73
2023-04-16T04:44:44.146Z,8.73
2023-04-16T04:45:44.166Z,8.72
2023-04-16T04:46:44.155Z,8.73
2023-04-16T04:47:44.191Z,8.73
2023-04-16T04:48:44.171Z,8.75
2023-04-16T04:49:44.127Z,8.73
2023-04-16T04:50:44.169Z,8.75
2023-04-16T04:51:44.094Z,8.75
2023-04-16T04:52:44.095Z,8.76
2023-04-16T04:53:44.078Z,8.75
2023-04-16T04:54:44.086Z,8.75
2023-04-16T04:55:44.048Z,8.76
2023-04-16T04:56:44.034Z,8.76
2023-04-16T04:57:44.029Z,8.75
2023-04-16T04:58:44.038Z,8.75
2023-04-16T04:59:44.017Z,8.76
2023-04-16T05:00:44.102Z,8.76
2023-04-16T05:01:43.970Z,8.79
2023-04-16T05:02:44.059Z,8.79
2023-04-16T05:03:44.113Z,8.78
2023-04-16T05:04:43.973Z,8.79
2023-04-16T05:05:43.930Z,8.78
2023-04-16T05:06:43.958Z,8.79
2023-04-16T05:07:43.921Z,8.79
2023-04-16T05:08:43.915Z,8.78
2023-04-16T05:09:44.525Z,8.81
2023-04-16T05:10:43.911Z,8.81
2023-04-16T05:11:43.895Z,8.79
2023-04-16T05:12:43.945Z,8.81
2023-04-16T05:13:43.884Z,8.81
2023-04-16T05:14:43.864Z,8.83
2023-04-16T05:15:43.842Z,8.83
2023-04-16T05:16:43.921Z,8.84
2023-04-16T05:17:43.940Z,8.84
2023-04-16T05:18:43.822Z,8.86
2023-04-16T05:19:43.788Z,8.86
2023-04-16T05:20:43.781Z,8.84
2023-04-16T05:21:43.792Z,8.86
2023-04-16T05:22:43.761Z,8.84
2023-04-16T05:23:43.757Z,8.86
2023-04-16T05:24:43.754Z,8.86
2023-04-16T05:25:43.776Z,8.86
2023-04-16T05:26:43.738Z,8.87
2023-04-16T05:27:43.768Z,8.87
2023-04-16T05:28:43.700Z,8.87
2023-04-16T05:29:43.721Z,8.87
2023-04-16T05:30:43.774Z,8.87
2023-04-16T05:31:43.753Z,8.87
2023-04-16T05:32:43.727Z,8.87
2023-04-16T05:33:43.679Z,8.88
2023-04-16T05:34:43.676Z,8.87
2023-04-16T05:35:43.679Z,8.87
2023-04-16T05:36:43.667Z,8.88
2023-04-16T05:37:43.673Z,8.88
2023-04-16T05:38:43.672Z,8.90
2023-04-16T05:39:43.631Z,8.88
2023-04-16T05:40:43.596Z,8.91
2023-04-16T05:41:43.589Z,8.91
2023-04-16T05:42:43.964Z,8.93
2023-04-16T05:43:43.576Z,8.91
2023-04-16T05:44:43.582Z,8.93
2023-04-16T05:45:43.592Z,8.94
2023-04-16T05:46:43.535Z,8.94
2023-04-16T05:47:43.586Z,8.96
2023-04-16T05:48:43.585Z,8.94
2023-04-16T05:49:43.499Z,8.96
2023-04-16T05:50:43.479Z,8.97
2023-04-16T05:51:43.465Z,8.96
2023-04-16T05:52:43.521Z,8.97
2023-04-16T05:53:43.481Z,8.96
2023-04-16T05:54:43.518Z,8.96
2023-04-16T05:55:43.462Z,8.99
2023-04-16T05:56:43.422Z,8.97
2023-04-16T05:57:43.424Z,9.01
2023-04-16T05:58:43.428Z,9.02
2023-04-16T05:59:43.423Z,9.02
2023-04-16T06:00:43.420Z,9.04
2023-04-16T06:01:43.373Z,9.05
2023-04-16T06:02:43.508Z,9.06
2023-04-16T06:03:43.570Z,9.09
2023-04-16T06:04:43.362Z,9.10
2023-04-16T06:05:43.423Z,9.12
2023-04-16T06:06:43.358Z,9.13
2023-04-16T06:07:43.340Z,9.16
2023-04-16T06:08:43.341Z,9.18
2023-04-16T06:09:43.328Z,9.18
2023-04-16T06:10:43.337Z,9.15
2023-04-16T06:11:43.349Z,9.16
2023-04-16T06:12:43.308Z,9.13
2023-04-16T06:13:43.264Z,9.13
2023-04-16T06:14:43.248Z,9.15
2023-04-16T06:15:43.286Z,9.18
2023-04-16T06:16:43.274Z,9.20
2023-04-16T06:17:43.408Z,9.18
2023-04-16T06:18:43.299Z,9.20
2023-04-16T06:19:43.335Z,9.18
2023-04-16T06:20:43.262Z,9.20
2023-04-16T06:21:43.252Z,9.20
2023-04-16T06:22:43.214Z,9.21
2023-04-16T06:23:43.192Z,9.23
2023-04-16T06:24:43.192Z,9.25
2023-04-16T06:25:43.146Z,9.25
2023-04-16T06:26:43.153Z,9.23
2023-04-16T06:27:43.192Z,9.23
2023-04-16T06:28:43.170Z,9.24
2023-04-16T06:29:43.104Z,9.25
2023-04-16T06:30:44.621Z,9.24
2023-04-16T06:31:43.114Z,9.25
2023-04-16T06:32:43.302Z,9.27
2023-04-16T06:33:43.058Z,9.27
2023-04-16T06:34:43.065Z,9.28
2023-04-16T06:35:43.064Z,9.30
2023-04-16T06:36:43.168Z,9.30
2023-04-16T06:37:43.027Z,9.31
2023-04-16T06:38:43.064Z,9.30
2023-04-16T06:39:43.037Z,9.30
2023-04-16T06:40:43.549Z,9.32
2023-04-16T06:41:43.006Z,9.32
2023-04-16T06:42:45.236Z,9.31
2023-04-16T06:43:42.974Z,9.32
2023-04-16T06:44:42.984Z,9.34
2023-04-16T06:45:42.959Z,9.35
2023-04-16T06:46:43.050Z,9.38
2023-04-16T06:47:43.009Z,9.40
2023-04-16T06:48:43.007Z,9.39
2023-04-16T06:49:42.948Z,9.40
2023-04-16T06:50:42.948Z,9.40
2023-04-16T06:51:42.930Z,9.43
2023-04-16T06:52:42.880Z,9.42
2023-04-16T06:53:42.869Z,9.43
2023-04-16T06:54:42.907Z,9.43
2023-04-16T06:55:42.884Z,9.45
2023-04-16T06:56:42.885Z,9.48
2023-04-16T06:57:42.822Z,9.50
2023-04-16T06:58:42.829Z,9.52
2023-04-16T06:59:42.833Z,9.50
2023-04-16T07:00:42.915Z,9.57
2023-04-16T07:01:42.864Z,9.61
2023-04-16T07:02:42.924Z,9.66
2023-04-16T07:03:43.006Z,9.68
2023-04-16T07:04:42.764Z,9.70
2023-04-16T07:05:42.762Z,9.73
2023-04-16T07:06:42.783Z,9.71
2023-04-16T07:07:42.731Z,9.75
2023-04-16T07:08:42.705Z,9.76
2023-04-16T07:09:42.746Z,9.79
2023-04-16T07:10:42.723Z,9.81
2023-04-16T07:11:42.723Z,9.81
2023-04-16T07:12:42.751Z,9.81
2023-04-16T07:13:42.685Z,9.79
2023-04-16T07:14:42.638Z,9.78
2023-04-16T07:15:42.709Z,9.76
2023-04-16T07:16:42.683Z,9.78
2023-04-16T07:17:42.658Z,9.79
2023-04-16T07:18:42.667Z,9.81
2023-04-16T07:19:42.621Z,9.83
2023-04-16T07:20:42.613Z,9.85
2023-04-16T07:21:42.608Z,9.89
2023-04-16T07:22:42.594Z,9.96
2023-04-16T07:23:42.585Z,9.96
2023-04-16T07:24:42.647Z,10.03
2023-04-16T07:25:42.578Z,10.17
2023-04-16T07:26:42.554Z,10.22
2023-04-16T07:27:42.529Z,10.28
2023-04-16T07:28:42.574Z,10.34
2023-04-16T07:29:42.501Z,10.39
2023-04-16T07:30:42.568Z,10.42
2023-04-16T07:31:42.528Z,10.39
2023-04-16T07:32:42.568Z,10.34
2023-04-16T07:33:42.532Z,10.36
2023-04-16T07:34:42.568Z,10.32
2023-04-16T07:35:42.513Z,10.30
2023-04-16T07:36:42.489Z,10.30
2023-04-16T07:37:42.477Z,10.28
2023-04-16T07:38:42.425Z,10.26
2023-04-16T07:39:42.446Z,10.25
2023-04-16T07:40:42.415Z,10.24
2023-04-16T07:41:42.400Z,10.21
2023-04-16T07:42:42.452Z,10.22
2023-04-16T07:43:42.414Z,10.18
2023-04-16T07:44:42.404Z,10.14
2023-04-16T07:45:42.380Z,10.17
2023-04-16T07:46:47.250Z,10.18
2023-04-16T07:47:42.379Z,10.22
2023-04-16T07:48:42.932Z,10.22
2023-04-16T07:49:42.338Z,10.24
2023-04-16T07:50:42.302Z,10.22
2023-04-16T07:51:42.323Z,10.22
2023-04-16T07:52:42.309Z,10.22
2023-04-16T07:53:42.314Z,10.19
2023-04-16T07:54:42.306Z,10.22
2023-04-16T07:55:42.261Z,10.25
2023-04-16T07:56:42.284Z,10.22
2023-04-16T07:57:42.297Z,10.24
2023-04-16T07:58:42.243Z,10.25
2023-04-16T07:59:42.229Z,10.30
2023-04-16T08:00:42.253Z,10.36
2023-04-16T08:01:42.217Z,10.39
2023-04-16T08:02:42.321Z,10.40
2023-04-16T08:03:42.322Z,10.40
2023-04-16T08:04:42.442Z,10.46
2023-04-16T08:05:42.182Z,10.51
2023-04-16T08:06:42.166Z,10.58
2023-04-16T08:07:42.130Z,10.65
2023-04-16T08:08:42.144Z,10.70
2023-04-16T08:09:42.121Z,10.71
2023-04-16T08:10:42.219Z,10.74
2023-04-16T08:11:42.118Z,10.80
2023-04-16T08:12:42.136Z,10.83
2023-04-16T08:13:42.086Z,10.81
2023-04-16T08:14:42.088Z,10.86
2023-04-16T08:15:42.082Z,10.88
2023-04-16T08:16:42.061Z,10.84
2023-04-16T08:17:42.130Z,10.88
2023-04-16T08:18:42.082Z,10.98
2023-04-16T08:19:42.060Z,11.07
2023-04-16T08:20:42.063Z,11.20
2023-04-16T08:21:42.007Z,11.28
2023-04-16T08:22:42.030Z,11.31
2023-04-16T08:23:41.989Z,11.32
2023-04-16T08:24:42.013Z,11.44
2023-04-16T08:25:41.966Z,11.57
2023-04-16T08:26:41.973Z,11.65
2023-04-16T08:27:41.980Z,11.74
2023-04-16T08:28:41.961Z,11.83
2023-04-16T08:29:41.935Z,11.87
2023-04-16T08:30:41.952Z,11.93
2023-04-16T08:31:41.921Z,11.90
2023-04-16T08:32:41.955Z,11.94
2023-04-16T08:33:41.883Z,11.99
2023-04-16T08:34:41.898Z,12.02
2023-04-16T08:35:41.890Z,12.06
2023-04-16T08:36:41.925Z,11.99
2023-04-16T08:37:41.851Z,11.89
2023-04-16T08:38:41.882Z,11.82
2023-04-16T08:39:41.853Z,11.70
2023-04-16T08:40:41.815Z,11.67
2023-04-16T08:41:41.810Z,11.65
2023-04-16T08:42:41.856Z,11.61
2023-04-16T08:43:41.809Z,11.59
2023-04-16T08:44:41.768Z,11.54
2023-04-16T08:45:41.793Z,11.59
2023-04-16T08:46:41.798Z,11.62
2023-04-16T08:47:41.805Z,11.64
2023-04-16T08:48:41.764Z,11.70
2023-04-16T08:49:41.765Z,11.74
2023-04-16T08:50:41.724Z,11.83
2023-04-16T08:51:41.715Z,11.85
2023-04-16T08:52:41.684Z,11.93
2023-04-16T08:53:41.736Z,12.02
2023-04-16T08:54:42.129Z,12.09
2023-04-16T08:55:41.697Z,12.23
2023-04-16T08:56:43.069Z,12.27
2023-04-16T08:57:41.664Z,12.39
2023-04-16T08:58:41.615Z,12.46
2023-04-16T08:59:41.641Z,12.44
2023-04-16T09:00:41.648Z,12.45
2023-04-16T09:01:41.646Z,12.49
2023-04-16T09:02:41.778Z,12.48
2023-04-16T09:03:41.746Z,12.54
2023-04-16T09:04:41.698Z,12.48
2023-04-16T09:05:41.571Z,12.45
2023-04-16T09:06:41.574Z,12.38
2023-04-16T09:07:41.563Z,12.30
2023-04-16T09:08:41.544Z,12.16
2023-04-16T09:09:41.532Z,12.01
2023-04-16T09:10:41.529Z,11.97
2023-04-16T09:11:41.503Z,12.02
2023-04-16T09:12:41.539Z,12.12
2023-04-16T09:13:41.484Z,12.23
2023-04-16T09:14:41.473Z,12.16
2023-04-16T09:15:41.489Z,12.21
2023-04-16T09:16:41.537Z,12.23
2023-04-16T09:17:41.467Z,12.39
2023-04-16T09:18:41.482Z,12.44
2023-04-16T09:19:41.546Z,12.56
2023-04-16T09:20:41.616Z,12.60
2023-04-16T09:21:41.678Z,12.69
2023-04-16T09:22:41.570Z,12.74
2023-04-16T09:23:41.597Z,12.84
2023-04-16T09:24:41.565Z,12.92
2023-04-16T09:25:41.513Z,13.03
2023-04-16T09:26:41.733Z,13.11
2023-04-16T09:27:41.483Z,13.22
2023-04-16T09:28:41.554Z,13.36
2023-04-16T09:29:41.396Z,13.44
2023-04-16T09:30:41.569Z,13.40
2023-04-16T09:31:41.640Z,13.41
2023-04-16T09:32:41.475Z,13.29
2023-04-16T09:33:41.567Z,13.17
2023-04-16T09:34:41.301Z,13.21
2023-04-16T09:35:41.286Z,13.27
2023-04-16T09:36:41.618Z,13.40
2023-04-16T09:37:41.884Z,13.55
2023-04-16T09:38:41.217Z,13.76
2023-04-16T09:39:42.506Z,13.87
2023-04-16T09:40:41.308Z,13.96
2023-04-16T09:41:41.288Z,13.98
2023-04-16T09:42:41.231Z,14.09
2023-04-16T09:43:41.220Z,14.21
2023-04-16T09:44:41.191Z,14.27
2023-04-16T09:45:41.392Z,14.39
2023-04-16T09:46:41.295Z,14.46
2023-04-16T09:47:41.322Z,14.37
2023-04-16T09:48:41.192Z,14.17
2023-04-16T09:49:41.157Z,13.88
2023-04-16T09:50:41.486Z,13.69
2023-04-16T09:51:41.250Z,13.63
2023-04-16T09:52:41.313Z,13.67
2023-04-16T09:53:41.229Z,13.67
2023-04-16T09:54:41.097Z,13.70
2023-04-16T09:55:41.126Z,13.83
2023-04-16T09:56:41.229Z,13.98
2023-04-16T09:57:41.231Z,14.07
2023-04-16T09:58:41.003Z,14.07
2023-04-16T09:59:41.290Z,13.91
2023-04-16T10:00:43.383Z,14.06
2023-04-16T10:01:41.089Z,14.25
2023-04-16T10:02:41.042Z,14.29
2023-04-16T10:03:41.314Z,14.42
2023-04-16T10:04:41.355Z,14.56
2023-04-16T10:05:41.012Z,14.52
2023-04-16T10:06:41.040Z,14.53
2023-04-16T10:07:41.103Z,14.53
2023-04-16T10:08:40.946Z,14.50
2023-04-16T10:09:41.096Z,14.34
2023-04-16T10:10:41.016Z,14.28
2023-04-16T10:11:40.913Z,14.12
2023-04-16T10:12:40.925Z,13.94
2023-04-16T10:13:41.013Z,13.83
2023-04-16T10:14:41.130Z,13.87
2023-04-16T10:15:41.097Z,13.83
2023-04-16T10:16:41.319Z,13.91
2023-04-16T10:17:40.907Z,13.94
2023-04-16T10:18:41.179Z,13.84
2023-04-16T10:19:41.251Z,13.73
2023-04-16T10:20:40.853Z,13.71
2023-04-16T10:21:41.253Z,13.46
2023-04-16T10:22:41.192Z,13.38
2023-04-16T10:23:41.033Z,13.20
2023-04-16T10:24:40.860Z,13.15
2023-04-16T10:25:40.805Z,13.15
2023-04-16T10:26:41.241Z,13.27
2023-04-16T10:27:40.857Z,13.41
2023-04-16T10:28:41.338Z,13.36
2023-04-16T10:29:40.713Z,13.38
2023-04-16T10:30:40.949Z,13.44
2023-04-16T10:31:40.750Z,13.40
2023-04-16T10:32:40.885Z,13.41
2023-04-16T10:33:41.018Z,13.38
2023-04-16T10:34:40.758Z,13.37
2023-04-16T10:35:41.214Z,13.38
2023-04-16T10:36:40.692Z,13.52
2023-04-16T10:37:40.678Z,13.65
2023-04-16T10:38:40.646Z,13.79
2023-04-16T10:39:41.235Z,13.91
2023-04-16T10:40:40.651Z,13.91
2023-04-16T10:41:40.838Z,13.98
2023-04-16T10:42:40.701Z,13.98
2023-04-16T10:43:40.608Z,13.89
2023-04-16T10:44:44.318Z,13.83
2023-04-16T10:45:40.777Z,13.87
2023-04-16T10:46:40.768Z,13.83
2023-04-16T10:47:40.709Z,13.83
2023-04-16T10:48:49.852Z,13.84
2023-04-16T10:49:41.210Z,13.89
2023-04-16T10:50:40.810Z,14.01
2023-04-16T10:51:40.519Z,14.06
2023-04-16T10:52:40.520Z,14.16
2023-04-16T10:53:40.520Z,14.32
2023-04-16T10:54:40.710Z,14.39
2023-04-16T10:55:40.500Z,14.50
2023-04-16T10:56:40.447Z,14.53
2023-04-16T10:57:40.429Z,14.39
2023-04-16T10:58:40.487Z,14.24
2023-04-16T10:59:40.434Z,14.04
2023-04-16T11:00:40.438Z,13.99
2023-04-16T11:01:40.446Z,14.01
2023-04-16T11:02:40.637Z,13.99
2023-04-16T11:03:40.527Z,13.96
2023-04-16T11:04:40.477Z,14.01
2023-04-16T11:05:40.384Z,13.87
2023-04-16T11:06:40.418Z,13.83
2023-04-16T11:07:40.373Z,13.81
2023-04-16T11:08:53.349Z,13.81
2023-04-16T11:09:40.328Z,13.71
2023-04-16T11:10:40.315Z,13.58
2023-04-16T11:11:40.305Z,13.52
2023-04-16T11:12:40.430Z,13.52
2023-04-16T11:13:41.276Z,13.61
2023-04-16T11:14:40.263Z,13.67
2023-04-16T11:15:40.303Z,13.80
2023-04-16T11:16:40.251Z,13.81
2023-04-16T11:17:40.336Z,13.94
2023-04-16T11:18:43.661Z,14.07
2023-04-16T11:19:40.226Z,14.25
2023-04-16T11:20:40.248Z,14.31
2023-04-16T11:21:40.248Z,14.46
2023-04-16T11:22:40.211Z,14.50
2023-04-16T11:23:40.185Z,14.61
2023-04-16T11:24:40.493Z,14.86
2023-04-16T11:25:40.378Z,15.15
2023-04-16T11:26:40.256Z,15.20
2023-04-16T11:27:40.495Z,15.45
2023-04-16T11:28:40.203Z,15.81
2023-04-16T11:29:40.365Z,15.86
2023-04-16T11:30:40.182Z,15.97
2023-04-16T11:31:40.378Z,16.04
2023-04-16T11:32:40.359Z,15.88
2023-04-16T11:33:40.079Z,15.81
2023-04-16T11:34:40.243Z,15.66
2023-04-16T11:35:40.276Z,15.66
2023-04-16T11:36:40.320Z,15.74
2023-04-16T11:37:40.250Z,15.60
2023-04-16T11:38:40.015Z,15.43
2023-04-16T11:39:40.202Z,15.15
2023-04-16T11:40:40.385Z,15.08
2023-04-16T11:41:40.063Z,15.08
2023-04-16T11:42:40.174Z,15.15
2023-04-16T11:43:40.446Z,15.23
2023-04-16T11:44:39.958Z,15.35
2023-04-16T11:45:40.389Z,15.21
2023-04-16T11:46:40.058Z,15.36
2023-04-16T11:47:40.052Z,15.52
2023-04-16T11:48:39.970Z,15.76
2023-04-16T11:49:40.203Z,15.94
2023-04-16T11:50:40.141Z,16.23
2023-04-16T11:51:40.064Z,16.60
2023-04-16T11:52:40.318Z,16.27
2023-04-16T11:53:40.058Z,16.34
2023-04-16T11:54:40.125Z,16.30
2023-04-16T11:55:39.952Z,16.23
2023-04-16T11:56:40.120Z,16.25
2023-04-16T11:57:39.858Z,16.23
2023-04-16T11:58:42.458Z,15.70
2023-04-16T12:00:01.553Z,15.51
2023-04-16T12:00:40.129Z,15.51
2023-04-16T12:01:39.841Z,15.56
2023-04-16T12:02:40.022Z,15.51
2023-04-16T12:03:40.166Z,15.49
2023-04-16T12:04:39.855Z,15.49
2023-04-16T12:05:39.785Z,15.38
2023-04-16T12:06:39.833Z,15.30
2023-04-16T12:07:39.777Z,15.38
2023-04-16T12:08:39.776Z,15.54
2023-04-16T12:09:40.829Z,15.56
2023-04-16T12:10:39.765Z,15.51
2023-04-16T12:11:39.777Z,15.56
2023-04-16T12:12:39.780Z,15.60
2023-04-16T12:13:39.972Z,15.52
2023-04-16T12:14:40.042Z,15.66
2023-04-16T12:15:39.802Z,15.74
2023-04-16T12:16:39.759Z,15.92
2023-04-16T12:17:39.846Z,15.93
2023-04-16T12:18:39.810Z,15.93
2023-04-16T12:19:39.731Z,15.84
2023-04-16T12:20:39.634Z,15.78
2023-04-16T12:21:39.741Z,15.64
2023-04-16T12:22:39.824Z,15.45
2023-04-16T12:23:39.820Z,15.23
2023-04-16T12:24:39.683Z,15.09
2023-04-16T12:25:39.732Z,14.99
2023-04-16T12:26:39.637Z,14.81
2023-04-16T12:27:39.943Z,14.74
2023-04-16T12:28:39.981Z,14.75
2023-04-16T12:29:39.804Z,14.75
2023-04-16T12:30:39.650Z,14.81
2023-04-16T12:31:39.984Z,14.84
2023-04-16T12:32:39.890Z,14.87
2023-04-16T12:33:39.866Z,14.88
2023-04-16T12:34:48.430Z,14.87
2023-04-16T12:35:39.791Z,14.81
2023-04-16T12:36:39.829Z,14.74
2023-04-16T12:37:39.490Z,14.75
2023-04-16T12:38:39.749Z,14.72
2023-04-16T12:39:39.728Z,14.65
2023-04-16T12:40:39.793Z,14.52
2023-04-16T12:41:39.723Z,14.47
2023-04-16T12:42:39.456Z,14.47
2023-04-16T12:43:39.591Z,14.52
2023-04-16T12:44:39.791Z,14.61
2023-04-16T12:45:39.938Z,14.64
2023-04-16T12:46:39.473Z,14.60
2023-04-16T12:47:39.937Z,14.61
2023-04-16T12:48:39.524Z,14.64
2023-04-16T12:49:39.341Z,14.65
2023-04-16T12:50:39.482Z,14.65
2023-04-16T12:51:39.368Z,14.65
2023-04-16T12:52:39.320Z,14.69
2023-04-16T12:53:39.307Z,14.65
2023-04-16T12:54:39.320Z,14.62
2023-04-16T12:55:39.342Z,14.56
2023-04-16T12:56:39.394Z,14.53
2023-04-16T12:57:39.369Z,14.47
2023-04-16T12:58:39.563Z,14.39
2023-04-16T12:59:39.427Z,14.24
2023-04-16T13:00:39.276Z,14.16
2023-04-16T13:01:39.259Z,14.10
2023-04-16T13:02:39.660Z,14.02
2023-04-16T13:03:39.491Z,14.06
2023-04-16T13:04:39.464Z,14.04
2023-04-16T13:05:39.278Z,14.06
2023-04-16T13:06:39.257Z,14.12
2023-04-16T13:07:39.520Z,14.10